Terminal Aerodrome Forecast
Issued by NWS Melbourne, FL

Home | Current Version | Previous Version | Text Only | Print | Product List | Glossary On
Versions: 1 2 3 4 5 6 7 8 9 10 11 12 13
000
FTUS42 KMLB 301100
TAFDAB
TAF
KDAB 301126Z 3012/3112 VRB03KT P6SM FEW040
     FM301400 14005KT P6SM SCT035
     FM301800 10008KT P6SM VCTS SCT040CB BKN250
     FM302100 12005KT P6SM SCT060 BKN100
     FM310000 14003KT P6SM SCT100
     FM310800 00000KT P6SM FEW100=

USA.gov is the U.S. government's official web portal to all federal, state and local government web resources and services.